createdAt,value
2023-04-12T00:01:39.435Z,3.80
2023-04-12T00:05:47.194Z,6.65
2023-04-12T00:09:48.862Z,4.97
2023-04-12T00:13:50.571Z,3.78
2023-04-12T00:17:52.266Z,5.63
2023-04-12T00:21:54.203Z,8.30
2023-04-12T00:25:55.944Z,6.63
2023-04-12T00:29:57.591Z,5.28
2023-04-12T00:33:59.301Z,6.10
2023-04-12T00:46:08.518Z,4.65
2023-04-12T00:50:10.997Z,6.47
2023-04-12T00:54:14.165Z,5.28
2023-04-12T00:58:17.040Z,8.02
2023-04-12T01:06:44.891Z,5.75
2023-04-12T01:10:58.033Z,10.07
2023-04-12T01:15:06.827Z,5.60
2023-04-12T01:19:29.894Z,7.20
2023-04-12T01:23:48.481Z,4.47
2023-04-12T01:27:53.271Z,5.45
2023-04-12T01:31:59.854Z,15.27
2023-04-12T01:36:07.634Z,7.43
2023-04-12T01:40:10.805Z,9.82
2023-04-12T01:44:15.932Z,7.55
2023-04-12T01:48:18.628Z,6.00
2023-04-12T01:52:23.092Z,6.45
2023-04-12T01:56:29.949Z,6.47
2023-04-12T02:00:36.061Z,6.03
2023-04-12T02:04:38.747Z,6.00
2023-04-12T02:08:40.502Z,5.28
2023-04-12T02:12:43.575Z,6.75
2023-04-12T02:16:46.024Z,6.03
2023-04-12T02:20:47.776Z,6.75
2023-04-12T02:24:49.563Z,7.35
2023-04-12T02:28:52.770Z,7.60
2023-04-12T02:32:56.374Z,12.95
2023-04-12T02:37:07.471Z,9.63
2023-04-12T02:41:09.267Z,4.55
2023-04-12T02:45:11.972Z,5.82
2023-04-12T02:49:15.816Z,4.85
2023-04-12T02:53:18.196Z,9.10
2023-04-12T02:57:25.915Z,6.57
2023-04-12T03:01:27.732Z,6.38
2023-04-12T03:05:48.380Z,7.63
2023-04-12T03:09:52.884Z,5.15
2023-04-12T03:13:57.467Z,6.75
2023-04-12T03:17:59.394Z,6.03
2023-04-12T03:22:06.254Z,5.05
2023-04-12T03:26:12.006Z,5.43
2023-04-12T03:30:19.704Z,8.93
2023-04-12T03:34:22.484Z,5.78
2023-04-12T03:38:28.109Z,5.05
2023-04-12T03:42:33.500Z,7.03
2023-04-12T03:46:48.904Z,7.82
2023-04-12T03:50:55.001Z,5.75
2023-04-12T03:54:58.221Z,8.73
2023-04-12T03:59:02.484Z,8.48
2023-04-12T04:03:05.775Z,5.75
2023-04-12T04:07:21.686Z,3.83
2023-04-12T04:11:25.663Z,5.13
2023-04-12T04:15:33.168Z,4.43
2023-04-12T04:19:36.608Z,3.92
2023-04-12T04:23:40.850Z,1.75
2023-04-12T04:27:47.234Z,3.13
2023-04-12T04:31:50.398Z,4.47
2023-04-12T04:35:52.467Z,5.38
2023-04-12T04:40:00.631Z,4.15
2023-04-12T04:44:04.773Z,3.75
2023-04-12T04:48:08.285Z,2.83
2023-04-12T04:52:10.163Z,6.75
2023-04-12T04:56:12.082Z,2.20
2023-04-12T05:00:17.616Z,7.25
2023-04-12T05:04:25.485Z,8.52
2023-04-12T05:08:28.955Z,2.22
2023-04-12T05:12:31.485Z,3.17
2023-04-12T05:16:33.423Z,2.72
2023-04-12T05:20:35.174Z,3.17
2023-04-12T05:24:37.413Z,2.58
2023-04-12T05:28:39.131Z,2.53
2023-04-12T05:32:41.802Z,4.30
2023-04-12T05:36:44.762Z,4.75
2023-04-12T05:40:46.660Z,3.40
2023-04-12T05:44:51.094Z,2.25
2023-04-12T05:48:56.545Z,3.08
2023-04-12T05:52:58.399Z,4.75
2023-04-12T05:57:04.655Z,2.67
2023-04-12T06:01:06.514Z,2.80
2023-04-12T06:09:14.952Z,2.92
2023-04-12T06:13:16.682Z,3.60
2023-04-12T06:17:21.492Z,4.50
2023-04-12T06:21:23.494Z,1.25
2023-04-12T06:25:27.416Z,3.28
2023-04-12T06:29:32.599Z,2.35
2023-04-12T06:33:38.175Z,2.47
2023-04-12T06:37:44.161Z,1.30
2023-04-12T06:41:47.661Z,3.60
2023-04-12T06:45:54.556Z,2.97
2023-04-12T06:49:58.532Z,3.00
2023-04-12T06:54:00.294Z,1.40
2023-04-12T06:58:02.177Z,2.35
2023-04-12T07:02:05.001Z,2.47
2023-04-12T07:06:17.737Z,3.58
2023-04-12T07:10:29.526Z,3.05
2023-04-12T07:14:31.484Z,4.15
2023-04-12T07:18:33.173Z,3.17
2023-04-12T07:22:35.027Z,2.50
2023-04-12T07:26:36.870Z,3.92
2023-04-12T07:30:41.662Z,1.80
2023-04-12T07:34:45.069Z,1.50
2023-04-12T07:38:47.235Z,2.37
2023-04-12T07:42:48.896Z,2.03
2023-04-12T07:46:50.758Z,4.85
2023-04-12T07:50:52.560Z,5.20
2023-04-12T07:54:55.266Z,1.95
2023-04-12T07:58:58.156Z,4.90
2023-04-12T08:03:01.889Z,3.92
2023-04-12T08:07:04.266Z,5.72
2023-04-12T08:11:06.840Z,4.78
2023-04-12T08:15:09.454Z,2.90
2023-04-12T08:19:12.005Z,2.10
2023-04-12T08:23:13.781Z,2.78
2023-04-12T08:27:17.027Z,5.35
2023-04-12T08:31:19.124Z,3.95
2023-04-12T08:35:20.986Z,5.13
2023-04-12T08:39:23.401Z,5.10
2023-04-12T08:43:28.832Z,3.58
2023-04-12T08:47:31.879Z,5.78
2023-04-12T08:51:34.921Z,5.30
2023-04-12T08:55:36.717Z,5.35
2023-04-12T08:59:42.286Z,6.28
2023-04-12T09:03:44.977Z,4.30
2023-04-12T09:07:46.732Z,4.60
2023-04-12T09:11:48.464Z,4.00
2023-04-12T09:15:50.773Z,4.05
2023-04-12T09:19:53.661Z,6.22
2023-04-12T09:24:04.111Z,7.20
2023-04-12T09:28:20.145Z,3.55
2023-04-12T09:32:27.596Z,6.45
2023-04-12T09:36:42.571Z,7.00
2023-04-12T09:40:46.069Z,7.15
2023-04-12T09:48:57.567Z,5.38
2023-04-12T09:53:03.553Z,4.00
2023-04-12T09:57:08.948Z,4.55
2023-04-12T10:01:11.347Z,5.88
2023-04-12T10:05:16.170Z,7.30
2023-04-12T10:09:18.338Z,4.43
2023-04-12T10:13:21.275Z,6.07
2023-04-12T10:21:27.450Z,4.78
2023-04-12T10:25:31.294Z,5.78
2023-04-12T10:29:38.694Z,8.13
2023-04-12T10:33:42.299Z,8.50
2023-04-12T10:38:06.139Z,4.13
2023-04-12T10:42:16.916Z,5.93
2023-04-12T10:46:40.628Z,4.72
2023-04-12T10:50:42.530Z,7.40
2023-04-12T10:54:44.594Z,4.57
2023-04-12T10:58:48.368Z,4.57
2023-04-12T11:03:08.294Z,5.30
2023-04-12T11:07:12.359Z,8.35
2023-04-12T11:11:22.970Z,4.70
2023-04-12T11:15:29.010Z,9.20
2023-04-12T11:19:53.900Z,6.53
2023-04-12T11:23:58.304Z,6.78
2023-04-12T11:28:00.740Z,4.38
2023-04-12T11:32:05.981Z,4.68
2023-04-12T11:36:09.911Z,5.20
2023-04-12T11:40:12.005Z,5.95
2023-04-12T11:44:15.182Z,5.20
2023-04-12T11:48:17.041Z,7.70
2023-04-12T11:52:19.836Z,8.88
2023-04-12T11:56:22.575Z,6.05
2023-04-12T12:00:25.679Z,6.10
2023-04-12T12:04:29.959Z,6.90
2023-04-12T12:08:31.842Z,6.72
2023-04-12T12:12:35.280Z,4.88
2023-04-12T12:16:38.850Z,4.95
2023-04-12T12:20:49.415Z,5.45
2023-04-12T12:24:55.527Z,6.32
2023-04-12T12:28:58.185Z,7.15
2023-04-12T12:33:00.345Z,7.38
2023-04-12T12:37:02.128Z,8.40
2023-04-12T12:41:24.010Z,6.50
2023-04-12T12:45:29.920Z,12.70
2023-04-12T12:49:31.596Z,11.05
2023-04-12T12:53:33.553Z,7.57
2023-04-12T12:57:35.934Z,6.17
2023-04-12T13:01:37.872Z,6.28
2023-04-12T13:05:39.896Z,6.10
2023-04-12T13:09:41.685Z,6.35
2023-04-12T13:13:43.493Z,5.35
2023-04-12T13:17:45.173Z,4.57
2023-04-12T13:21:52.998Z,7.82
2023-04-12T13:25:56.522Z,4.63
2023-04-12T13:30:00.521Z,5.70
2023-04-12T13:34:02.361Z,4.60
2023-04-12T13:38:04.062Z,9.07
2023-04-12T13:46:10.224Z,6.30
2023-04-12T13:50:13.629Z,9.25
2023-04-12T13:54:16.017Z,8.23
2023-04-12T13:58:18.975Z,6.65
2023-04-12T14:10:25.678Z,5.50
2023-04-12T14:14:28.154Z,5.50
2023-04-12T14:18:31.921Z,6.73
2023-04-12T14:22:33.659Z,6.43
2023-04-12T14:26:39.936Z,4.40
2023-04-12T14:30:42.528Z,5.07
2023-04-12T14:34:44.508Z,4.57
2023-04-12T14:38:47.050Z,5.63
2023-04-12T14:42:48.806Z,5.40
2023-04-12T14:46:50.633Z,7.40
2023-04-12T14:50:52.781Z,3.63
2023-04-12T14:54:55.197Z,6.43
2023-04-12T14:58:56.984Z,3.33
2023-04-12T15:03:01.132Z,2.47
2023-04-12T15:07:03.065Z,5.88
2023-04-12T15:11:05.241Z,2.53
2023-04-12T15:15:07.563Z,1.42
2023-04-12T15:19:17.327Z,1.45
2023-04-12T15:23:21.568Z,5.55
2023-04-12T15:27:23.533Z,1.63
2023-04-12T15:31:26.314Z,2.20
2023-04-12T15:35:29.868Z,2.08
2023-04-12T15:39:32.006Z,2.90
2023-04-12T15:43:33.728Z,2.50
2023-04-12T15:47:35.709Z,3.35
2023-04-12T15:51:38.407Z,2.67
2023-04-12T15:55:44.757Z,1.20
2023-04-12T15:59:46.564Z,1.35
2023-04-12T16:03:50.149Z,1.27
2023-04-12T16:07:54.247Z,2.78
2023-04-12T16:11:56.058Z,0.82
2023-04-12T16:15:57.793Z,0.68
2023-04-12T16:19:59.674Z,0.90
2023-04-12T16:24:01.455Z,0.52
2023-04-12T16:28:03.926Z,0.85
2023-04-12T16:32:07.592Z,0.43
2023-04-12T16:36:09.570Z,0.88
2023-04-12T16:40:13.079Z,2.57
2023-04-12T16:44:18.950Z,1.25
2023-04-12T16:48:22.897Z,1.10
2023-04-12T16:52:25.552Z,0.80
2023-04-12T16:56:27.206Z,0.57
2023-04-12T17:00:29.549Z,0.30
2023-04-12T17:04:31.721Z,0.40
2023-04-12T17:08:33.399Z,1.02
2023-04-12T17:12:35.078Z,1.90
2023-04-12T17:16:38.329Z,1.05
2023-04-12T17:20:40.635Z,0.73
2023-04-12T17:24:42.719Z,2.22
2023-04-12T17:28:44.801Z,0.30
2023-04-12T17:32:47.757Z,1.50
2023-04-12T17:36:49.554Z,3.13
2023-04-12T17:40:52.932Z,3.50
2023-04-12T17:44:54.611Z,0.77
2023-04-12T17:48:59.663Z,2.00
2023-04-12T17:53:02.086Z,1.02
2023-04-12T17:57:04.860Z,2.85
2023-04-12T18:01:06.819Z,1.05
2023-04-12T18:05:08.997Z,1.37
2023-04-12T18:09:11.508Z,1.35
2023-04-12T18:13:13.160Z,2.60
2023-04-12T18:17:14.931Z,2.35
2023-04-12T18:21:21.103Z,2.00
2023-04-12T18:25:23.074Z,2.72
2023-04-12T18:29:25.969Z,3.78
2023-04-12T18:37:32.061Z,1.98
2023-04-12T18:41:34.178Z,3.78
2023-04-12T18:45:40.563Z,2.97
2023-04-12T18:49:42.549Z,2.85
2023-04-12T18:53:44.315Z,3.93
2023-04-12T18:57:48.555Z,1.83
2023-04-12T19:01:51.609Z,1.08
2023-04-12T19:05:58.949Z,4.53
2023-04-12T19:10:00.737Z,1.17
2023-04-12T19:14:03.270Z,3.38
2023-04-12T19:18:05.185Z,1.20
2023-04-12T19:22:07.290Z,3.70
2023-04-12T19:26:09.101Z,1.25
2023-04-12T19:30:13.238Z,1.17
2023-04-12T19:34:18.616Z,1.63
2023-04-12T19:38:21.290Z,1.63
2023-04-12T19:42:23.366Z,7.50
2023-04-12T19:46:25.339Z,3.53
2023-04-12T19:50:27.268Z,2.08
2023-04-12T19:54:29.751Z,4.32
2023-04-12T19:58:33.460Z,3.05
2023-04-12T20:02:37.544Z,7.85
2023-04-12T20:06:39.640Z,7.55
2023-04-12T20:10:41.683Z,3.43
2023-04-12T20:14:43.388Z,6.20
2023-04-12T20:18:45.034Z,6.85
2023-04-12T20:22:47.918Z,2.42
2023-04-12T20:30:51.385Z,3.42
2023-04-12T20:34:53.069Z,2.85
2023-04-12T20:38:55.293Z,2.53
2023-04-12T20:42:57.290Z,4.07
2023-04-12T20:47:00.272Z,6.18
2023-04-12T20:51:02.318Z,3.38
2023-04-12T20:55:05.051Z,3.67
2023-04-12T20:59:06.749Z,3.58
2023-04-12T21:03:08.631Z,3.33
2023-04-12T21:07:12.416Z,3.80
2023-04-12T21:11:14.808Z,6.30
2023-04-12T21:15:21.950Z,4.60
2023-04-12T21:19:23.778Z,5.35
2023-04-12T21:23:25.472Z,6.43
2023-04-12T21:27:27.941Z,5.15
2023-04-12T21:31:30.721Z,2.88
2023-04-12T21:35:32.562Z,4.18
2023-04-12T21:39:35.179Z,3.35
2023-04-12T21:43:37.396Z,3.95
2023-04-12T21:47:40.640Z,4.68
2023-04-12T21:51:42.357Z,3.30
2023-04-12T21:55:49.826Z,3.50
2023-04-12T21:59:51.503Z,2.90
2023-04-12T22:03:53.337Z,2.85
2023-04-12T22:07:55.493Z,2.27
2023-04-12T22:11:57.249Z,2.67
2023-04-12T22:16:00.833Z,3.08
2023-04-12T22:20:04.016Z,1.13
2023-04-12T22:24:08.364Z,1.70
2023-04-12T22:28:12.442Z,1.23
2023-04-12T22:32:14.287Z,1.20
2023-04-12T22:36:16.580Z,1.77
2023-04-12T22:40:18.488Z,5.22
2023-04-12T22:44:23.254Z,1.42
2023-04-12T22:48:25.388Z,2.70
2023-04-12T22:52:30.681Z,1.30
2023-04-12T22:56:32.621Z,1.17
2023-04-12T23:00:35.425Z,3.38
2023-04-12T23:04:37.434Z,3.10
2023-04-12T23:08:39.323Z,3.25
2023-04-12T23:12:41.043Z,0.80
2023-04-12T23:16:44.462Z,2.70
2023-04-12T23:20:48.458Z,3.60
2023-04-12T23:24:50.744Z,2.15
2023-04-12T23:28:52.418Z,1.15
2023-04-12T23:32:54.130Z,2.33
2023-04-12T23:36:55.903Z,3.50
2023-04-12T23:40:58.284Z,1.85
2023-04-12T23:45:00.162Z,0.98
2023-04-12T23:49:02.264Z,0.93
2023-04-12T23:53:05.168Z,1.80
2023-04-12T23:57:07.347Z,3.30
